createdAt,value
2022-09-10T00:01:30.424Z,4.27
2022-09-10T00:03:58.792Z,2.97
2022-09-10T00:06:27.634Z,4.77
2022-09-10T00:08:57.314Z,3.70
2022-09-10T00:11:32.160Z,3.60
2022-09-10T00:14:00.718Z,2.90
2022-09-10T00:16:32.239Z,3.47
2022-09-10T00:19:01.328Z,5.53
2022-09-10T00:21:30.002Z,7.67
2022-09-10T00:23:58.761Z,4.30
2022-09-10T00:26:29.073Z,3.73
2022-09-10T00:28:59.678Z,4.57
2022-09-10T00:31:32.168Z,4.13
2022-09-10T00:34:02.402Z,3.33
2022-09-10T00:36:33.822Z,2.70
2022-09-10T00:39:04.194Z,1.87
2022-09-10T00:41:32.590Z,4.60
2022-09-10T00:44:02.326Z,2.30
2022-09-10T00:46:42.773Z,4.87
2022-09-10T00:49:17.746Z,4.00
2022-09-10T00:51:48.255Z,2.30
2022-09-10T00:54:20.325Z,4.07
2022-09-10T00:56:50.675Z,6.53
2022-09-10T00:59:21.232Z,3.13
2022-09-10T01:01:51.307Z,3.33
2022-09-10T01:04:20.052Z,3.40
2022-09-10T01:06:49.884Z,4.10
2022-09-10T01:09:18.589Z,2.93
2022-09-10T01:12:00.774Z,4.13
2022-09-10T01:14:48.669Z,2.07
2022-09-10T01:17:31.467Z,2.13
2022-09-10T01:20:28.850Z,2.23
2022-09-10T01:23:22.160Z,2.70
2022-09-10T01:26:04.656Z,3.67
2022-09-10T01:28:41.346Z,6.30
2022-09-10T01:31:15.547Z,2.57
2022-09-10T01:33:51.194Z,4.40
2022-09-10T01:36:24.228Z,2.50
2022-09-10T01:38:54.409Z,3.03
2022-09-10T01:41:25.989Z,2.30
2022-09-10T01:43:56.072Z,3.60
2022-09-10T01:46:37.016Z,3.20
2022-09-10T01:49:18.899Z,2.87
2022-09-10T01:52:08.879Z,3.00
2022-09-10T01:54:50.863Z,3.80
2022-09-10T01:57:29.870Z,3.83
2022-09-10T02:00:07.252Z,1.27
2022-09-10T02:02:45.979Z,1.40
2022-09-10T02:05:16.739Z,3.90
2022-09-10T02:07:47.992Z,4.17
2022-09-10T02:10:17.073Z,1.60
2022-09-10T02:12:47.727Z,1.77
2022-09-10T02:15:46.465Z,2.03
2022-09-10T02:18:22.186Z,1.17
2022-09-10T02:20:52.668Z,2.63
2022-09-10T02:23:27.360Z,4.43
2022-09-10T02:25:55.507Z,3.63
2022-09-10T02:28:29.449Z,4.10
2022-09-10T02:30:58.961Z,3.87
2022-09-10T02:33:28.119Z,6.03
2022-09-10T02:35:56.965Z,3.60
2022-09-10T02:38:25.083Z,5.67
2022-09-10T02:40:59.281Z,4.07
2022-09-10T02:43:27.484Z,4.00
2022-09-10T02:46:00.621Z,5.20
2022-09-10T02:48:31.063Z,5.17
2022-09-10T02:51:00.018Z,4.50
2022-09-10T02:53:31.037Z,4.50
2022-09-10T02:56:03.107Z,7.80
2022-09-10T02:58:32.124Z,4.30
2022-09-10T03:01:10.222Z,7.10
2022-09-10T03:03:44.920Z,5.10
2022-09-10T03:06:16.882Z,4.87
2022-09-10T03:10:14.046Z,3.67
2022-09-10T03:12:48.231Z,5.50
2022-09-10T03:15:18.019Z,3.40
2022-09-10T03:17:48.992Z,4.83
2022-09-10T03:20:18.185Z,6.00
2022-09-10T03:22:47.336Z,5.83
2022-09-10T03:25:17.320Z,4.47
2022-09-10T03:27:45.582Z,6.23
2022-09-10T03:30:14.465Z,5.27
2022-09-10T03:32:43.328Z,4.17
2022-09-10T03:35:15.812Z,6.57
2022-09-10T03:37:44.261Z,4.53
2022-09-10T03:40:12.511Z,5.83
2022-09-10T03:42:40.636Z,5.23
2022-09-10T03:45:09.697Z,4.77
2022-09-10T03:47:38.423Z,4.27
2022-09-10T03:50:07.652Z,5.77
2022-09-10T03:52:38.521Z,5.27
2022-09-10T03:55:07.959Z,8.13
2022-09-10T03:57:35.982Z,5.90
2022-09-10T04:00:05.844Z,7.90
2022-09-10T04:02:44.155Z,6.87
2022-09-10T04:05:13.533Z,4.33
2022-09-10T04:07:44.096Z,5.23
2022-09-10T04:10:15.899Z,8.43
2022-09-10T04:12:44.421Z,3.30
2022-09-10T04:15:13.332Z,5.67
2022-09-10T04:17:41.550Z,5.43
2022-09-10T04:20:10.997Z,6.87
2022-09-10T04:22:39.670Z,5.83
2022-09-10T04:25:09.878Z,6.47
2022-09-10T04:27:39.535Z,6.23
2022-09-10T04:30:09.346Z,6.00
2022-09-10T04:32:37.710Z,9.67
2022-09-10T04:35:07.728Z,11.30
2022-09-10T04:37:37.196Z,6.97
2022-09-10T04:40:06.202Z,11.43
2022-09-10T04:42:38.399Z,9.17
2022-09-10T04:45:08.626Z,9.50
2022-09-10T04:47:37.988Z,11.27
2022-09-10T04:50:09.253Z,11.17
2022-09-10T04:52:37.583Z,6.40
2022-09-10T04:55:06.510Z,8.30
2022-09-10T04:57:34.582Z,10.47
2022-09-10T05:00:06.391Z,8.40
2022-09-10T05:02:37.679Z,7.33
2022-09-10T05:05:06.788Z,6.47
2022-09-10T05:07:35.070Z,10.90
2022-09-10T05:10:04.202Z,6.93
2022-09-10T05:12:32.397Z,7.37
2022-09-10T05:15:00.663Z,10.10
2022-09-10T05:17:31.085Z,6.27
2022-09-10T05:19:59.309Z,7.50
2022-09-10T05:22:34.925Z,7.07
2022-09-10T05:25:06.474Z,7.03
2022-09-10T05:27:34.593Z,5.97
2022-09-10T05:30:03.405Z,8.20
2022-09-10T05:32:33.860Z,9.37
2022-09-10T05:35:02.328Z,7.80
2022-09-10T05:37:31.971Z,7.53
2022-09-10T05:40:00.671Z,8.93
2022-09-10T05:42:28.726Z,6.50
2022-09-10T05:44:58.065Z,8.83
2022-09-10T05:47:28.218Z,7.23
2022-09-10T05:49:58.233Z,8.37
2022-09-10T05:52:26.347Z,9.27
2022-09-10T05:54:58.092Z,9.13
2022-09-10T05:57:26.280Z,9.57
2022-09-10T05:59:54.391Z,8.67
2022-09-10T06:02:24.279Z,6.23
2022-09-10T06:04:54.277Z,6.40
2022-09-10T06:07:25.245Z,5.57
2022-09-10T06:09:54.983Z,7.37
2022-09-10T06:12:46.716Z,8.70
2022-09-10T06:15:15.988Z,9.07
2022-09-10T06:17:45.542Z,8.50
2022-09-10T06:20:15.687Z,7.90
2022-09-10T06:22:47.039Z,7.63
2022-09-10T06:25:15.237Z,8.57
2022-09-10T06:27:44.490Z,7.20
2022-09-10T06:30:12.952Z,6.03
2022-09-10T06:32:44.838Z,6.40
2022-09-10T06:35:17.119Z,8.53
2022-09-10T06:37:52.442Z,6.83
2022-09-10T06:40:21.284Z,9.13
2022-09-10T06:42:50.913Z,10.33
2022-09-10T06:45:21.731Z,9.80
2022-09-10T06:48:48.104Z,5.30
2022-09-10T06:51:50.483Z,8.53
2022-09-10T06:54:31.288Z,7.73
2022-09-10T07:01:29.489Z,9.23
2022-09-10T07:04:41.314Z,7.93
2022-09-10T07:07:21.968Z,8.53
2022-09-10T07:10:41.723Z,8.43
2022-09-10T07:13:28.624Z,6.07
2022-09-10T07:15:57.747Z,6.57
2022-09-10T07:18:32.336Z,7.93
2022-09-10T07:21:08.747Z,8.10
2022-09-10T07:23:48.570Z,8.60
2022-09-10T07:26:20.845Z,9.67
2022-09-10T07:28:52.709Z,8.27
2022-09-10T07:31:23.900Z,10.30
2022-09-10T07:34:08.781Z,7.57
2022-09-10T07:36:40.148Z,9.30
2022-09-10T07:39:26.171Z,8.73
2022-09-10T07:42:01.668Z,5.73
2022-09-10T07:44:42.810Z,7.83
2022-09-10T07:47:11.428Z,9.50
2022-09-10T07:49:39.823Z,10.37
2022-09-10T07:52:09.269Z,10.50
2022-09-10T07:54:45.156Z,11.33
2022-09-10T07:57:15.018Z,7.43
2022-09-10T07:59:43.602Z,10.63
2022-09-10T08:02:16.084Z,14.37
2022-09-10T08:04:53.226Z,5.90
2022-09-10T08:07:22.243Z,8.73
2022-09-10T08:10:21.283Z,9.70
2022-09-10T08:12:54.860Z,6.00
2022-09-10T08:19:39.690Z,8.50
2022-09-10T08:22:12.790Z,9.60
2022-09-10T08:24:48.625Z,7.63
2022-09-10T08:27:18.135Z,9.03
2022-09-10T08:29:50.011Z,6.90
2022-09-10T08:32:18.466Z,8.17
2022-09-10T08:34:47.387Z,7.33
2022-09-10T08:37:16.752Z,9.33
2022-09-10T08:39:45.062Z,7.10
2022-09-10T08:42:20.473Z,8.43
2022-09-10T08:44:57.221Z,6.47
2022-09-10T08:47:35.742Z,8.67
2022-09-10T08:50:13.907Z,8.90
2022-09-10T08:52:48.935Z,9.33
2022-09-10T08:55:28.943Z,8.47
2022-09-10T08:58:01.621Z,9.27
2022-09-10T09:00:35.085Z,11.87
2022-09-10T09:03:16.020Z,8.13
2022-09-10T09:05:48.428Z,10.20
2022-09-10T09:08:21.982Z,10.97
2022-09-10T09:10:57.319Z,12.43
2022-09-10T09:13:51.207Z,15.17
2022-09-10T09:16:41.822Z,14.83
2022-09-10T09:19:20.401Z,10.77
2022-09-10T09:21:53.330Z,9.33
2022-09-10T09:24:28.992Z,9.97
2022-09-10T09:27:02.276Z,9.13
2022-09-10T09:29:35.925Z,11.13
2022-09-10T09:32:07.858Z,10.60
2022-09-10T09:34:41.248Z,10.23
2022-09-10T09:37:18.707Z,8.63
2022-09-10T09:39:54.667Z,13.50
2022-09-10T09:42:30.333Z,8.00
2022-09-10T09:45:11.700Z,8.10
2022-09-10T09:47:45.821Z,10.37
2022-09-10T09:50:18.439Z,12.30
2022-09-10T09:52:47.243Z,9.53
2022-09-10T09:55:24.718Z,11.00
2022-09-10T09:58:31.210Z,12.00
2022-09-10T10:01:21.885Z,13.30
2022-09-10T10:03:54.594Z,11.17
2022-09-10T10:06:25.255Z,12.20
2022-09-10T10:09:00.222Z,12.23
2022-09-10T10:11:50.508Z,11.83
2022-09-10T10:14:38.340Z,10.87
2022-09-10T10:17:43.624Z,12.83
2022-09-10T10:20:18.296Z,11.27
2022-09-10T10:22:48.526Z,12.87
2022-09-10T10:25:41.571Z,13.67
2022-09-10T10:28:22.180Z,15.17
2022-09-10T10:30:56.690Z,15.03
2022-09-10T10:33:32.328Z,15.63
2022-09-10T10:36:12.020Z,13.90
2022-09-10T10:38:42.630Z,11.67
2022-09-10T10:41:50.872Z,14.97
2022-09-10T10:44:42.310Z,14.33
2022-09-10T10:47:30.035Z,14.37
2022-09-10T10:50:09.999Z,15.23
2022-09-10T10:52:48.748Z,14.23
2022-09-10T10:55:24.528Z,12.73
2022-09-10T10:58:13.075Z,15.50
2022-09-10T11:00:44.618Z,14.53
2022-09-10T11:03:21.310Z,13.77
2022-09-10T11:05:53.123Z,14.13
2022-09-10T11:08:31.511Z,15.43
2022-09-10T11:11:05.967Z,11.83
2022-09-10T11:13:40.633Z,12.77
2022-09-10T11:16:15.169Z,16.70
2022-09-10T11:18:46.477Z,14.60
2022-09-10T11:21:23.341Z,14.63
2022-09-10T11:24:00.043Z,14.97
2022-09-10T11:26:33.862Z,13.77
2022-09-10T11:29:14.383Z,18.37
2022-09-10T11:31:45.216Z,13.80
2022-09-10T11:34:20.066Z,12.63
2022-09-10T11:36:53.556Z,13.17
2022-09-10T11:39:33.346Z,13.70
2022-09-10T11:42:06.034Z,10.57
2022-09-10T11:44:46.367Z,14.73
2022-09-10T11:47:20.568Z,13.87
2022-09-10T11:49:55.474Z,12.27
2022-09-10T11:52:25.944Z,14.53
2022-09-10T11:54:57.410Z,14.30
2022-09-10T11:57:35.187Z,18.90
2022-09-10T12:00:15.883Z,14.60
2022-09-10T12:03:20.407Z,15.13
2022-09-10T12:06:00.768Z,13.97
2022-09-10T12:08:49.627Z,16.37
2022-09-10T12:11:28.472Z,15.57
2022-09-10T12:13:57.697Z,14.90
2022-09-10T12:16:34.852Z,14.40
2022-09-10T12:19:07.523Z,15.93
2022-09-10T12:21:39.577Z,13.73
2022-09-10T12:24:26.867Z,20.17
2022-09-10T12:26:57.239Z,19.47
2022-09-10T12:29:29.619Z,15.93
2022-09-10T12:32:28.671Z,15.50
2022-09-10T12:35:47.697Z,15.93
2022-09-10T12:38:51.469Z,16.07
2022-09-10T12:41:56.741Z,14.30
2022-09-10T12:44:52.554Z,14.97
2022-09-10T12:47:46.852Z,17.30
2022-09-10T12:50:45.966Z,17.93
2022-09-10T12:53:55.644Z,19.03
2022-09-10T12:56:57.322Z,15.57
2022-09-10T13:00:01.082Z,16.53
2022-09-10T13:02:32.977Z,17.03
2022-09-10T13:05:06.248Z,18.17
2022-09-10T13:07:41.703Z,15.37
2022-09-10T13:10:22.107Z,21.07
2022-09-10T13:12:55.315Z,15.57
2022-09-10T13:15:27.954Z,14.23
2022-09-10T13:18:31.384Z,16.07
2022-09-10T13:21:01.070Z,15.10
2022-09-10T13:23:50.178Z,19.93
2022-09-10T13:26:52.530Z,15.77
2022-09-10T13:29:35.033Z,14.87
2022-09-10T13:32:11.221Z,15.47
2022-09-10T13:35:12.491Z,15.97
2022-09-10T13:38:19.024Z,16.97
2022-09-10T13:41:03.664Z,15.20
2022-09-10T13:44:04.447Z,16.97
2022-09-10T13:46:36.597Z,13.87
2022-09-10T13:49:12.629Z,14.97
2022-09-10T13:51:50.337Z,12.23
2022-09-10T13:54:33.071Z,12.50
2022-09-10T13:57:07.308Z,11.07
2022-09-10T13:59:38.385Z,16.77
2022-09-10T14:02:06.509Z,15.23
2022-09-10T14:04:41.890Z,13.03
2022-09-10T14:07:16.394Z,12.57
2022-09-10T14:09:47.566Z,13.43
2022-09-10T14:12:16.707Z,17.37
2022-09-10T14:14:48.962Z,17.57
2022-09-10T14:17:21.505Z,16.13
2022-09-10T14:19:58.072Z,14.27
2022-09-10T14:22:26.972Z,14.10
2022-09-10T14:24:57.331Z,13.43
2022-09-10T14:27:27.264Z,14.40
2022-09-10T14:29:57.442Z,13.87
2022-09-10T14:32:33.362Z,14.70
2022-09-10T14:35:43.174Z,14.43
2022-09-10T14:38:24.443Z,13.23
2022-09-10T14:40:58.405Z,14.30
2022-09-10T14:43:32.422Z,15.93
2022-09-10T14:46:01.091Z,17.63
2022-09-10T14:48:38.602Z,13.10
2022-09-10T14:51:17.667Z,12.87
2022-09-10T14:53:47.139Z,16.30
2022-09-10T14:56:26.442Z,13.37
2022-09-10T14:59:00.338Z,11.97
2022-09-10T15:01:29.510Z,11.00
2022-09-10T15:03:59.353Z,12.17
2022-09-10T15:06:28.991Z,14.27
2022-09-10T15:08:57.200Z,12.73
2022-09-10T15:11:27.781Z,13.50
2022-09-10T15:13:58.796Z,13.43
2022-09-10T15:16:27.664Z,13.83
2022-09-10T15:18:56.008Z,14.40
2022-09-10T15:21:24.345Z,14.17
2022-09-10T15:23:53.938Z,15.57
2022-09-10T15:26:25.471Z,10.47
2022-09-10T15:28:53.959Z,10.90
2022-09-10T15:31:23.309Z,11.50
2022-09-10T15:33:52.961Z,9.13
2022-09-10T15:36:22.525Z,8.27
2022-09-10T15:38:54.114Z,9.10
2022-09-10T15:41:22.694Z,10.17
2022-09-10T15:43:51.035Z,10.37
2022-09-10T15:46:20.989Z,10.97
2022-09-10T15:48:49.921Z,9.40
2022-09-10T15:51:21.441Z,9.17
2022-09-10T15:53:51.047Z,8.73
2022-09-10T15:56:22.458Z,10.23
2022-09-10T15:58:55.283Z,9.13
2022-09-10T16:01:27.808Z,10.77
2022-09-10T16:03:58.035Z,10.30
2022-09-10T16:06:30.604Z,11.87
2022-09-10T16:09:02.062Z,10.93
2022-09-10T16:11:33.911Z,9.97
2022-09-10T16:14:04.905Z,14.17
2022-09-10T16:16:42.429Z,13.53
2022-09-10T16:19:13.237Z,13.27
2022-09-10T16:21:45.849Z,14.00
2022-09-10T16:24:14.332Z,16.80
2022-09-10T16:26:45.952Z,16.33
2022-09-10T16:29:18.469Z,17.17
2022-09-10T16:31:46.994Z,13.83
2022-09-10T16:34:18.473Z,15.60
2022-09-10T16:36:48.848Z,14.60
2022-09-10T16:39:20.829Z,13.13
2022-09-10T16:41:52.007Z,12.77
2022-09-10T16:44:20.804Z,13.83
2022-09-10T16:46:59.381Z,14.20
2022-09-10T16:49:33.661Z,14.07
2022-09-10T16:52:08.135Z,14.53
2022-09-10T16:54:38.467Z,13.13
2022-09-10T16:57:09.982Z,12.83
2022-09-10T16:59:38.146Z,11.87
2022-09-10T17:02:07.561Z,10.43
2022-09-10T17:04:35.878Z,10.73
2022-09-10T17:07:03.909Z,11.53
2022-09-10T17:09:32.151Z,10.13
2022-09-10T17:12:00.692Z,10.27
2022-09-10T17:14:30.211Z,8.10
2022-09-10T17:16:58.711Z,11.53
2022-09-10T17:19:28.987Z,6.97
2022-09-10T17:21:57.069Z,9.23
2022-09-10T17:24:27.217Z,9.40
2022-09-10T17:26:55.500Z,9.10
2022-09-10T17:29:25.066Z,8.77
2022-09-10T17:31:55.575Z,8.67
2022-09-10T17:34:24.586Z,9.90
2022-09-10T17:36:53.182Z,9.63
2022-09-10T17:39:21.848Z,8.23
2022-09-10T17:41:50.287Z,8.13
2022-09-10T17:44:18.626Z,11.27
2022-09-10T17:46:46.659Z,8.90
2022-09-10T17:49:16.852Z,10.07
2022-09-10T17:51:45.342Z,8.40
2022-09-10T17:54:14.049Z,9.47
2022-09-10T17:56:43.451Z,8.53
2022-09-10T17:59:14.517Z,11.20
2022-09-10T18:01:43.247Z,10.63
2022-09-10T18:04:14.430Z,8.43
2022-09-10T18:06:48.953Z,9.53
2022-09-10T18:09:28.192Z,9.77
2022-09-10T18:11:56.867Z,9.03
2022-09-10T18:14:25.809Z,9.63
2022-09-10T18:16:55.580Z,9.53
2022-09-10T18:19:23.948Z,10.10
2022-09-10T18:21:53.501Z,9.47
2022-09-10T18:24:23.817Z,10.23
2022-09-10T18:26:54.758Z,11.47
2022-09-10T18:29:25.182Z,10.40
2022-09-10T18:31:55.812Z,10.50
2022-09-10T18:34:27.738Z,11.07
2022-09-10T18:36:59.722Z,10.23
2022-09-10T18:39:29.726Z,11.93
2022-09-10T18:41:58.942Z,11.13
2022-09-10T18:44:30.068Z,12.63
2022-09-10T18:46:58.626Z,10.90
2022-09-10T18:49:28.098Z,10.07
2022-09-10T18:51:58.095Z,13.10
2022-09-10T18:54:29.292Z,12.47
2022-09-10T18:56:58.747Z,14.17
2022-09-10T18:59:27.409Z,13.33
2022-09-10T19:01:58.666Z,12.40
2022-09-10T19:04:28.469Z,12.47
2022-09-10T19:06:59.302Z,14.83
2022-09-10T19:09:29.106Z,13.93
2022-09-10T19:11:59.048Z,13.40
2022-09-10T19:14:29.507Z,12.20
2022-09-10T19:17:02.365Z,12.80
2022-09-10T19:19:32.621Z,12.53
2022-09-10T19:22:07.003Z,13.90
2022-09-10T19:27:23.653Z,13.80
2022-09-10T19:29:52.282Z,14.50
2022-09-10T19:32:21.099Z,16.27
2022-09-10T19:34:50.602Z,13.70
2022-09-10T19:37:20.887Z,13.17
2022-09-10T19:39:49.115Z,12.03
2022-09-10T19:42:17.296Z,11.63
2022-09-10T19:44:45.261Z,15.67
2022-09-10T19:47:13.387Z,13.27
2022-09-10T19:49:41.430Z,13.93
2022-09-10T19:52:14.916Z,12.87
2022-09-10T19:54:44.338Z,13.17
2022-09-10T19:57:12.599Z,14.63
2022-09-10T19:59:40.916Z,13.17
2022-09-10T20:02:10.806Z,14.60
2022-09-10T20:04:38.908Z,14.80
2022-09-10T20:07:07.424Z,13.83
2022-09-10T20:09:39.702Z,14.93
2022-09-10T20:12:10.853Z,11.93
2022-09-10T20:14:39.053Z,13.13
2022-09-10T20:17:07.281Z,13.00
2022-09-10T20:19:35.678Z,14.80
2022-09-10T20:22:04.346Z,13.87
2022-09-10T20:24:32.412Z,16.90
2022-09-10T20:27:00.669Z,15.77
2022-09-10T20:29:33.106Z,14.40
2022-09-10T20:32:01.588Z,12.90
2022-09-10T20:34:31.363Z,15.37
2022-09-10T20:36:59.968Z,12.83
2022-09-10T20:39:28.127Z,14.80
2022-09-10T20:41:56.188Z,14.73
2022-09-10T20:44:24.110Z,15.87
2022-09-10T20:46:53.539Z,16.50
2022-09-10T20:49:21.561Z,14.73
2022-09-10T20:51:49.569Z,14.83
2022-09-10T20:54:19.085Z,18.23
2022-09-10T20:56:47.455Z,15.77
2022-09-10T20:59:16.869Z,12.43
2022-09-10T21:01:47.025Z,15.73
2022-09-10T21:04:16.466Z,17.87
2022-09-10T21:06:44.497Z,13.07
2022-09-10T21:09:13.510Z,17.33
2022-09-10T21:11:43.529Z,15.77
2022-09-10T21:14:13.374Z,14.60
2022-09-10T21:16:43.177Z,15.83
2022-09-10T21:19:13.748Z,14.53
2022-09-10T21:21:45.724Z,14.53
2022-09-10T21:24:16.620Z,15.00
2022-09-10T21:26:45.307Z,17.83
2022-09-10T21:29:15.047Z,12.17
2022-09-10T21:31:43.749Z,14.13
2022-09-10T21:34:12.057Z,15.20
2022-09-10T21:36:41.090Z,15.53
2022-09-10T21:39:13.958Z,14.73
2022-09-10T21:41:44.026Z,12.13
2022-09-10T21:44:14.116Z,16.33
2022-09-10T21:46:42.709Z,13.83
2022-09-10T21:49:11.084Z,15.77
2022-09-10T21:51:39.103Z,13.77
2022-09-10T21:54:07.470Z,15.10
2022-09-10T21:56:36.839Z,14.97
2022-09-10T21:59:04.801Z,15.97
2022-09-10T22:01:33.545Z,13.33
2022-09-10T22:04:02.255Z,14.50
2022-09-10T22:06:31.678Z,16.33
2022-09-10T22:09:01.508Z,13.57
2022-09-10T22:11:31.547Z,12.30
2022-09-10T22:14:04.800Z,13.20
2022-09-10T22:16:34.716Z,15.07
2022-09-10T22:19:05.445Z,14.27
2022-09-10T22:21:33.764Z,15.27
2022-09-10T22:24:01.702Z,14.77
2022-09-10T22:26:29.803Z,17.13
2022-09-10T22:29:00.822Z,16.63
2022-09-10T22:31:31.476Z,13.47
2022-09-10T22:34:01.503Z,14.67
2022-09-10T22:36:31.974Z,13.67
2022-09-10T22:39:01.635Z,12.20
2022-09-10T22:41:31.676Z,15.07
2022-09-10T22:44:01.605Z,14.30
2022-09-10T22:46:30.626Z,14.27
2022-09-10T22:48:59.275Z,14.17
2022-09-10T22:51:29.571Z,15.07
2022-09-10T22:53:59.052Z,15.20
2022-09-10T22:56:28.363Z,14.03
2022-09-10T22:58:57.923Z,13.93
2022-09-10T23:01:28.944Z,14.60
2022-09-10T23:03:57.882Z,13.00
2022-09-10T23:06:28.314Z,14.70
2022-09-10T23:09:02.317Z,15.33
2022-09-10T23:11:32.088Z,15.53
2022-09-10T23:14:02.195Z,14.87
2022-09-10T23:16:34.204Z,14.07
2022-09-10T23:19:03.878Z,18.93
2022-09-10T23:21:36.642Z,11.97
2022-09-10T23:24:07.358Z,13.23
2022-09-10T23:26:38.257Z,13.13
2022-09-10T23:29:06.569Z,15.27
2022-09-10T23:31:37.967Z,15.57
2022-09-10T23:34:07.882Z,13.20
2022-09-10T23:36:37.370Z,15.73
2022-09-10T23:39:08.000Z,14.77
2022-09-10T23:41:36.874Z,19.23
2022-09-10T23:44:05.034Z,16.07
2022-09-10T23:46:34.032Z,12.73
2022-09-10T23:49:03.930Z,12.87
2022-09-10T23:51:31.904Z,17.23
2022-09-10T23:53:59.789Z,13.63
2022-09-10T23:56:28.575Z,10.80
2022-09-10T23:58:58.041Z,13.30
